Time;durP1;ratioP1;P1;durP2;ratioP2;P2;SDS_P1;SDS_P2;PMS_P1;PMS_P2;Temp;Humidity;BMP_temperature;BMP_pressure;BME280_temperature;BME280_humidity;BME280_pressure;Samples;Min_cycle;Max_cycle;Signal;HPM_P1;HPM_P2
2022/10/19 04:00:29;;;;;;;0.60;0.20;;;;;;;;;;6032186;23;21832;31
2022/10/19 04:02:57;;;;;;;0.80;0.70;;;14.00;1.00;;;;;;4936193;29;20258;-75
2022/10/19 04:05:25;;;;;;;0.60;0.10;;;;;;;;;;4938644;29;20491;-75
2022/10/19 04:07:53;;;;;;;0.60;0.10;;;13.80;1.00;;;;;;4938722;29;20499;-75
2022/10/19 04:10:21;;;;;;;0.60;0.10;;;13.70;1.00;;;;;;4938921;29;20444;-75
2022/10/19 04:12:48;;;;;;;0.60;0.10;;;13.70;1.00;;;;;;4939287;29;20491;-75
2022/10/19 04:15:21;;;;;;;0.60;0.10;;;13.60;1.00;;;;;;4952247;23;20475;-77
2022/10/19 04:17:50;;;;;;;0.60;0.10;;;13.60;1.00;;;;;;4937421;29;20500;-77
2022/10/19 04:20:17;;;;;;;0.60;0.10;;;13.50;1.00;;;;;;4937538;29;20500;-77
2022/10/19 04:22:46;;;;;;;0.60;0.30;;;13.50;1.00;;;;;;4929357;29;20451;-77
2022/10/19 04:25:13;;;;;;;0.60;0.10;;;13.50;1.00;;;;;;4937378;29;20468;-75
2022/10/19 04:27:41;;;;;;;0.60;0.27;;;13.50;1.00;;;;;;4937604;29;20488;-75
2022/10/19 04:30:10;;;;;;;0.60;0.20;;;13.40;1.00;;;;;;4936579;29;20515;-77
2022/10/19 04:32:37;;;;;;;0.60;0.10;;;13.40;1.00;;;;;;4931088;29;20487;-75
2022/10/19 04:35:08;;;;;;;0.60;0.20;;;13.40;1.00;;;;;;4936455;29;21085;-77
2022/10/19 04:37:35;;;;;;;0.70;0.20;;;13.40;1.00;;;;;;4932270;29;20456;-77
2022/10/19 04:40:04;;;;;;;0.70;0.50;;;13.30;1.00;;;;;;4937189;29;20467;-77
2022/10/19 04:42:33;;;;;;;0.60;0.10;;;13.30;1.00;;;;;;4937025;29;20511;-77
2022/10/19 04:45:00;;;;;;;0.60;0.10;;;13.30;1.00;;;;;;4933685;29;20456;-77
2022/10/19 04:47:29;;;;;;;0.70;0.50;;;13.30;1.00;;;;;;4936936;29;20459;-77
2022/10/19 04:49:56;;;;;;;0.60;0.10;;;13.30;1.00;;;;;;4937393;29;20476;-77
2022/10/19 04:52:25;;;;;;;0.60;0.23;;;13.30;1.00;;;;;;4937011;29;20468;-77
2022/10/19 04:54:55;;;;;;;0.60;0.10;;;13.30;1.00;;;;;;4937065;29;20451;-77
2022/10/19 04:57:23;;;;;;;0.60;0.20;;;13.30;1.00;;;;;;4935859;29;20858;-76
2022/10/19 04:59:51;;;;;;;0.60;0.10;;;13.30;1.00;;;;;;4928340;29;20460;-76
2022/10/19 05:02:19;;;;;;;0.60;0.10;;;13.30;1.00;;;;;;4923775;29;20473;-76
2022/10/19 05:04:48;;;;;;;0.60;0.40;;;13.20;1.00;;;;;;4926073;29;20440;-76
2022/10/19 05:07:15;;;;;;;0.60;0.33;;;13.20;1.00;;;;;;4925919;29;20459;-75
2022/10/19 05:09:48;;;;;;;0.60;0.10;;;13.20;1.00;;;;;;4926760;29;20465;-76
2022/10/19 05:12:16;;;;;;;0.60;0.10;;;13.10;1.00;;;;;;4935397;29;20977;-76
2022/10/19 05:14:43;;;;;;;0.60;0.10;;;13.10;1.00;;;;;;4936639;29;20479;-76
2022/10/19 05:17:11;;;;;;;0.60;0.10;;;13.10;1.00;;;;;;4936177;29;20917;-76
2022/10/19 05:19:39;;;;;;;0.70;0.30;;;13.00;1.00;;;;;;4936954;29;20447;-76
2022/10/19 05:22:07;;;;;;;0.60;0.10;;;13.00;1.00;;;;;;4929872;29;20563;-76
2022/10/19 05:24:34;;;;;;;2.53;2.33;;;13.00;1.00;;;;;;4928277;29;20507;-76
2022/10/19 05:27:04;;;;;;;1.37;1.27;;;13.00;1.00;;;;;;4927830;29;20542;-76
2022/10/19 05:29:32;;;;;;;0.60;0.10;;;12.90;1.00;;;;;;4928428;29;20448;-75
2022/10/19 05:32:00;;;;;;;0.70;0.30;;;12.90;1.00;;;;;;4924926;29;20495;-76
2022/10/19 05:34:28;;;;;;;0.60;0.10;;;12.90;1.00;;;;;;4927916;29;20481;-75
2022/10/19 05:36:56;;;;;;;0.70;0.57;;;12.90;1.00;;;;;;4919791;29;20480;-76
2022/10/19 05:39:24;;;;;;;0.70;0.50;;;12.80;1.00;;;;;;4931942;29;20452;-75
2022/10/19 05:41:52;;;;;;;0.60;0.10;;;12.80;1.00;;;;;;4936581;29;20511;-77
2022/10/19 05:44:23;;;;;;;0.60;0.10;;;12.40;1.00;;;;;;4935864;29;20440;-77
2022/10/19 05:46:52;;;;;;;0.60;0.10;;;12.80;1.00;;;;;;4925868;29;20567;-77
2022/10/19 05:49:21;;;;;;;2.63;2.37;;;12.70;1.00;;;;;;4936143;29;21038;-77
2022/10/19 05:51:50;;;;;;;0.60;0.10;;;12.70;1.00;;;;;;4931826;29;20456;-77
2022/10/19 05:54:18;;;;;;;0.60;0.10;;;12.70;1.00;;;;;;4916563;29;20520;-77
2022/10/19 05:56:50;;;;;;;0.60;0.10;;;12.60;1.00;;;;;;4917225;29;20544;-76
2022/10/19 05:59:19;;;;;;;3.40;3.20;;;12.60;1.00;;;;;;4917176;29;20461;-76
2022/10/19 06:01:49;;;;;;;0.60;0.10;;;12.60;1.00;;;;;;4917528;29;20473;-77
2022/10/19 06:04:17;;;;;;;0.60;0.30;;;;;;;;;;4917434;29;20459;-76
2022/10/19 06:06:45;;;;;;;0.60;0.20;;;12.60;1.00;;;;;;4923329;29;20505;-77
2022/10/19 06:09:15;;;;;;;0.70;0.63;;;12.60;1.00;;;;;;4928111;29;20519;-77
2022/10/19 06:11:43;;;;;;;1.57;0.90;;;12.60;1.00;;;;;;4931715;29;20441;-77
2022/10/19 06:14:13;;;;;;;0.90;0.90;;;12.60;1.00;;;;;;4926784;29;20509;-77
2022/10/19 06:16:41;;;;;;;0.60;0.10;;;12.60;1.00;;;;;;4936065;29;20488;-77
2022/10/19 06:19:10;;;;;;;0.60;0.10;;;12.60;1.00;;;;;;4930408;29;21007;-77
2022/10/19 06:21:38;;;;;;;0.60;0.10;;;12.60;1.00;;;;;;4927547;29;20625;-77
2022/10/19 06:24:12;;;;;;;0.60;0.20;;;12.60;1.00;;;;;;4922376;29;20547;-77
2022/10/19 06:26:40;;;;;;;0.60;0.20;;;12.60;1.00;;;;;;4935855;29;20781;-77
2022/10/19 06:29:08;;;;;;;1.83;0.70;;;12.50;1.00;;;;;;4920958;29;20456;-77
2022/10/19 06:31:37;;;;;;;0.60;0.10;;;12.50;1.00;;;;;;4923847;29;20476;-77
2022/10/19 06:34:05;;;;;;;0.70;0.53;;;12.50;1.00;;;;;;4936166;29;20487;-77
2022/10/19 06:36:34;;;;;;;0.60;0.10;;;12.40;1.00;;;;;;4944002;29;20487;-77
2022/10/19 06:39:03;;;;;;;0.60;0.10;;;12.40;1.00;;;;;;4936222;29;20440;-77
2022/10/19 06:41:33;;;;;;;0.60;0.20;;;12.40;1.00;;;;;;4935120;29;20898;-76
2022/10/19 06:44:00;;;;;;;1.27;0.50;;;12.30;1.00;;;;;;4935104;29;20444;-76
2022/10/19 06:46:31;;;;;;;0.60;0.10;;;12.30;1.00;;;;;;4918493;29;20545;-76
2022/10/19 06:49:00;;;;;;;0.80;0.77;;;12.40;1.00;;;;;;4916247;29;20441;-76
2022/10/19 06:51:32;;;;;;;0.60;0.40;;;12.40;1.00;;;;;;4917193;29;20448;-76
2022/10/19 06:54:02;;;;;;;0.50;0.10;;;12.30;1.00;;;;;;4915629;29;20477;-76
2022/10/19 06:56:29;;;;;;;0.60;0.20;;;12.30;1.00;;;;;;4916362;29;20528;-76
2022/10/19 06:58:58;;;;;;;0.60;0.10;;;12.30;1.00;;;;;;4921724;29;20460;-76
2022/10/19 07:01:25;;;;;;;0.60;0.10;;;12.40;1.00;;;;;;4935527;29;20543;-76
2022/10/19 07:03:54;;;;;;;0.60;0.10;;;12.40;1.00;;;;;;4934587;29;20522;-77
2022/10/19 07:06:22;;;;;;;0.60;0.27;;;12.40;1.00;;;;;;4935471;29;20506;-76
2022/10/19 07:08:49;;;;;;;0.60;0.10;;;12.40;1.00;;;;;;4935537;29;20518;-77
2022/10/19 07:11:22;;;;;;;0.83;0.47;;;12.40;1.00;;;;;;4934052;29;20923;-77
2022/10/19 07:13:50;;;;;;;0.83;0.63;;;12.50;1.00;;;;;;4939085;29;20515;-76
2022/10/19 07:16:18;;;;;;;0.60;0.20;;;12.50;1.00;;;;;;4937341;29;20499;-76
2022/10/19 07:18:49;;;;;;;0.60;0.23;;;12.50;1.00;;;;;;4938477;29;20452;-76
2022/10/19 07:21:19;;;;;;;0.60;0.30;;;12.50;1.00;;;;;;4939052;29;20452;-76
2022/10/19 07:23:47;;;;;;;0.60;0.10;;;12.50;1.00;;;;;;4938950;29;20444;-77
2022/10/19 07:26:18;;;;;;;0.60;0.10;;;12.50;1.00;;;;;;4920448;29;20492;-77
2022/10/19 07:28:48;;;;;;;0.60;0.10;;;12.50;1.00;;;;;;4919205;29;20460;-76
2022/10/19 07:31:19;;;;;;;0.60;0.10;;;12.50;1.00;;;;;;4919422;29;20461;-76
2022/10/19 07:33:47;;;;;;;2.57;0.60;;;12.50;1.00;;;;;;4919101;29;20962;-77
2022/10/19 07:36:14;;;;;;;0.60;0.10;;;12.50;1.00;;;;;;4919558;29;20543;-78
2022/10/19 07:38:42;;;;;;;0.90;0.70;;;12.50;1.00;;;;;;4921245;29;20452;-76
2022/10/19 07:41:12;;;;;;;0.60;0.10;;;12.50;1.00;;;;;;4922790;29;20493;-76
2022/10/19 07:43:41;;;;;;;0.60;0.10;;;12.50;1.00;;;;;;4935082;29;20547;-77
2022/10/19 07:46:12;;;;;;;0.60;0.10;;;12.50;1.00;;;;;;4936314;29;20882;-77
2022/10/19 07:48:40;;;;;;;0.60;0.30;;;12.50;1.00;;;;;;4925851;29;20464;-77
2022/10/19 07:51:10;;;;;;;0.60;0.30;;;12.50;1.00;;;;;;4936869;29;20480;-77
2022/10/19 07:53:38;;;;;;;0.70;0.53;;;12.40;1.00;;;;;;4936807;29;20526;-77
2022/10/19 07:56:09;;;;;;;0.60;0.30;;;12.40;1.00;;;;;;4939995;29;20491;-77
2022/10/19 07:58:38;;;;;;;0.53;0.10;;;12.40;1.00;;;;;;4939619;29;20559;-77
2022/10/19 08:01:08;;;;;;;0.60;0.10;;;12.30;1.00;;;;;;4921939;29;21242;-78
2022/10/19 08:03:38;;;;;;;0.60;0.10;;;12.20;1.00;;;;;;4920747;29;20467;-77
2022/10/19 08:06:27;;;;;;;0.60;0.10;;;12.30;1.00;;;;;;4926148;29;20903;-77
2022/10/19 08:08:56;;;;;;;0.60;0.10;;;12.30;1.00;;;;;;4939801;29;20969;-77
2022/10/19 08:11:25;;;;;;;0.60;0.10;;;12.30;1.00;;;;;;4939091;29;20448;-76
2022/10/19 08:13:54;;;;;;;0.60;0.20;;;12.40;1.00;;;;;;4935615;29;20460;-77
2022/10/19 08:16:28;;;;;;;0.83;0.83;;;12.30;1.00;;;;;;4939583;29;20495;-77
2022/10/19 08:18:59;;;;;;;0.60;0.10;;;12.30;1.00;;;;;;4938221;29;20508;-76
2022/10/19 08:21:28;;;;;;;0.60;0.13;;;12.30;1.00;;;;;;4940075;29;20488;-78
2022/10/19 08:23:55;;;;;;;0.60;0.20;;;12.30;1.00;;;;;;4920829;29;20549;-76
2022/10/19 08:26:24;;;;;;;0.60;0.10;;;12.30;1.00;;;;;;4925323;29;20490;-76
2022/10/19 08:28:52;;;;;;;0.60;0.10;;;12.30;1.00;;;;;;4939467;29;20511;-77
2022/10/19 08:31:22;;;;;;;0.73;0.57;;;12.30;1.00;;;;;;4936864;29;20452;-78
2022/10/19 08:33:50;;;;;;;0.60;0.10;;;12.30;1.00;;;;;;4923916;29;20452;-78
2022/10/19 08:36:20;;;;;;;0.50;0.10;;;12.40;1.00;;;;;;4938540;29;21003;-76
2022/10/19 08:38:49;;;;;;;0.60;0.10;;;12.50;1.00;;;;;;4936717;29;20879;-77
2022/10/19 08:41:30;;;;;;;0.60;0.10;;;12.50;1.00;;;;;;4933872;29;20460;-75
2022/10/19 08:44:13;;;;;;;0.60;0.10;;;12.60;1.00;;;;;;4930324;29;20451;-76
2022/10/19 08:46:49;;;;;;;1.53;0.83;;;12.70;1.00;;;;;;4936778;29;20524;-76
2022/10/19 08:49:20;;;;;;;0.60;0.10;;;12.70;1.00;;;;;;4921478;29;20461;-76
2022/10/19 08:51:53;;;;;;;0.60;0.10;;;12.70;1.00;;;;;;4931422;29;20460;-76
2022/10/19 08:54:21;;;;;;;0.70;0.60;;;12.70;1.00;;;;;;4937369;29;20503;-76
2022/10/19 08:56:55;;;;;;;0.60;0.10;;;12.80;1.00;;;;;;4937634;29;20523;-76
2022/10/19 08:59:34;;;;;;;0.60;0.10;;;12.80;1.00;;;;;;4939399;29;20447;-78
2022/10/19 09:02:10;;;;;;;0.60;0.40;;;12.90;1.00;;;;;;4937567;29;20452;-77
2022/10/19 09:04:42;;;;;;;0.60;0.10;;;12.90;1.00;;;;;;4938490;29;20950;-78
2022/10/19 09:07:24;;;;;;;1.27;0.93;;;12.90;1.00;;;;;;4940886;29;20500;-78
2022/10/19 09:09:57;;;;;;;0.60;0.20;;;13.00;1.00;;;;;;4938325;29;20456;-78
2022/10/19 09:12:39;;;;;;;0.60;0.10;;;12.90;1.00;;;;;;4937612;29;20443;-77
2022/10/19 09:15:12;;;;;;;0.93;0.93;;;12.90;1.00;;;;;;4936998;29;20539;-75
2022/10/19 09:17:40;;;;;;;0.60;0.10;;;12.90;1.00;;;;;;4920072;29;20468;-77
2022/10/19 09:20:18;;;;;;;0.60;0.10;;;13.00;1.00;;;;;;4932489;29;20460;-76
2022/10/19 09:22:57;;;;;;;0.60;0.10;;;13.10;1.00;;;;;;4936133;29;20998;-78
2022/10/19 09:25:27;;;;;;;4.70;3.77;;;13.20;1.00;;;;;;4926049;29;20467;-76
2022/10/19 09:28:06;;;;;;;0.60;0.10;;;13.20;1.00;;;;;;4936459;29;20456;-76
2022/10/19 09:30:37;;;;;;;0.60;0.10;;;13.20;1.00;;;;;;4936162;29;20448;-77
2022/10/19 09:33:11;;;;;;;0.80;0.20;;;13.30;1.00;;;;;;4932999;29;20555;-77
2022/10/19 09:35:45;;;;;;;1.60;0.83;;;13.40;1.00;;;;;;4935881;29;20479;-76
2022/10/19 09:38:16;;;;;;;0.60;0.10;;;13.40;1.00;;;;;;4936471;29;20455;-78
2022/10/19 09:40:44;;;;;;;1.13;0.40;;;13.50;1.00;;;;;;4920711;29;20461;-77
2022/10/19 09:43:21;;;;;;;0.60;0.13;;;13.50;1.00;;;;;;4917349;29;20500;-76
2022/10/19 09:45:55;;;;;;;0.60;0.40;;;13.60;1.00;;;;;;4918857;29;20464;-76
2022/10/19 09:48:33;;;;;;;0.60;0.10;;;13.60;1.00;;;;;;4923459;29;20463;-77
2022/10/19 09:51:03;;;;;;;0.60;0.10;;;13.70;1.00;;;;;;4920666;29;20982;-74
2022/10/19 09:53:32;;;;;;;0.60;0.10;;;13.80;1.00;;;;;;4929549;29;20460;-77
2022/10/19 09:56:05;;;;;;;0.60;0.30;;;13.90;1.00;;;;;;4940077;29;20516;-77
2022/10/19 09:58:34;;;;;;;0.60;0.10;;;13.90;1.00;;;;;;4939769;29;20461;-77
2022/10/19 10:01:03;;;;;;;0.60;0.10;;;14.00;1.00;;;;;;4929463;29;20448;-76
2022/10/19 10:03:38;;;;;;;0.60;0.10;;;14.00;1.00;;;;;;4930204;29;20464;-77
2022/10/19 10:06:08;;;;;;;1.00;0.50;;;14.10;1.00;;;;;;4936781;29;20471;-77
2022/10/19 10:08:39;;;;;;;0.60;0.50;;;14.10;1.00;;;;;;4934166;29;20518;-77
2022/10/19 10:11:11;;;;;;;0.60;0.40;;;14.00;1.00;;;;;;4934784;29;20535;-77
2022/10/19 10:13:41;;;;;;;0.60;0.10;;;14.10;1.00;;;;;;4934677;29;20452;-76
2022/10/19 10:16:11;;;;;;;0.80;0.43;;;14.20;1.00;;;;;;4932515;29;20523;-76
2022/10/19 10:18:50;;;;;;;4.90;1.27;;;14.20;1.00;;;;;;4935379;29;20452;-77
2022/10/19 10:21:23;;;;;;;3.23;1.80;;;14.30;1.00;;;;;;4935613;29;20480;-77
2022/10/19 10:24:04;;;;;;;0.80;0.47;;;14.30;1.00;;;;;;4928492;29;20509;-77
2022/10/19 10:26:37;;;;;;;0.60;0.10;;;14.30;1.00;;;;;;4917934;29;20979;-78
2022/10/19 10:29:17;;;;;;;0.60;0.10;;;14.30;1.00;;;;;;4917349;29;20441;-77
2022/10/19 10:31:47;;;;;;;0.60;0.10;;;14.40;1.00;;;;;;4928600;29;20459;-77
2022/10/19 10:34:22;;;;;;;0.70;0.57;;;14.40;1.00;;;;;;4930974;29;20455;-78
2022/10/19 10:37:08;;;;;;;0.60;0.10;;;14.50;1.00;;;;;;4936273;29;20535;-77
2022/10/19 10:39:42;;;;;;;0.60;0.20;;;14.60;1.00;;;;;;4943354;29;20471;-76
2022/10/19 10:42:14;;;;;;;0.60;0.10;;;14.60;1.00;;;;;;4931723;29;20475;-77
2022/10/19 10:44:46;;;;;;;0.60;0.10;;;14.70;1.00;;;;;;4933354;29;20867;-77
2022/10/19 10:47:16;;;;;;;0.60;0.10;;;14.80;1.00;;;;;;4933568;29;20470;-79
2022/10/19 10:49:52;;;;;;;0.60;0.20;;;14.80;1.00;;;;;;4934724;29;20448;-78
2022/10/19 10:52:20;;;;;;;0.60;0.10;;;14.90;1.00;;;;;;4931478;29;20546;-78
2022/10/19 10:55:02;;;;;;;0.60;0.10;;;15.10;1.00;;;;;;4935836;29;20474;-77
2022/10/19 10:57:34;;;;;;;0.60;0.10;;;15.10;1.00;;;;;;4933861;29;20508;-78
2022/10/19 11:00:09;;;;;;;0.60;0.10;;;15.30;1.00;;;;;;4937002;29;20520;-77
2022/10/19 11:02:45;;;;;;;0.60;0.10;;;15.40;1.00;;;;;;4935188;29;20515;-78
2022/10/19 11:05:18;;;;;;;0.60;0.30;;;15.40;1.00;;;;;;4932638;29;20452;-77
2022/10/19 11:07:48;;;;;;;0.60;0.10;;;15.40;1.00;;;;;;4935446;29;20448;-77
2022/10/19 11:10:26;;;;;;;0.60;0.10;;;15.50;1.00;;;;;;4935268;29;20519;-77
2022/10/19 11:13:03;;;;;;;0.60;0.10;;;15.50;1.00;;;;;;4935701;29;20460;-77
2022/10/19 11:15:36;;;;;;;0.60;0.10;;;15.60;1.00;;;;;;4933885;29;20475;-77
2022/10/19 11:18:14;;;;;;;0.60;0.10;;;15.60;1.00;;;;;;4935153;29;20480;-77
2022/10/19 11:20:48;;;;;;;0.60;0.20;;;15.60;1.00;;;;;;4935125;29;20488;-77
2022/10/19 11:23:23;;;;;;;0.60;0.10;;;15.60;1.00;;;;;;4935213;29;20460;-78
2022/10/19 11:26:03;;;;;;;0.60;0.20;;;15.50;1.00;;;;;;4935002;29;20471;-77
2022/10/19 11:28:47;;;;;;;0.60;0.10;;;15.50;1.00;;;;;;4934900;29;20503;-77
2022/10/19 11:31:19;;;;;;;0.60;0.10;;;15.50;1.00;;;;;;4934740;29;20448;-78
2022/10/19 11:33:55;;;;;;;0.60;0.10;;;15.50;1.00;;;;;;4936801;29;20464;-78
2022/10/19 11:36:39;;;;;;;0.60;0.20;;;15.50;1.00;;;;;;4935737;29;20503;-78
2022/10/19 11:39:27;;;;;;;0.60;0.10;;;15.50;1.00;;;;;;4930580;29;21065;-78
2022/10/19 11:42:02;;;;;;;0.60;0.10;;;15.60;1.00;;;;;;4925865;29;20467;-77
2022/10/19 11:44:41;;;;;;;0.60;0.20;;;15.60;1.00;;;;;;4922574;29;20595;-79
2022/10/19 11:47:35;;;;;;;0.60;0.10;;;15.60;1.00;;;;;;4927791;29;20476;-79
2022/10/19 11:50:17;;;;;;;6.43;6.07;;;15.60;1.00;;;;;;4926068;29;20465;-79
2022/10/19 11:52:56;;;;;;;5.30;2.57;;;15.70;1.00;;;;;;4929651;29;20515;-78
2022/10/19 11:55:35;;;;;;;0.60;0.10;;;15.80;1.00;;;;;;4935596;29;20471;-78
2022/10/19 11:58:19;;;;;;;0.60;0.10;;;15.80;1.00;;;;;;4936698;29;20561;-78
2022/10/19 12:00:53;;;;;;;0.60;0.10;;;15.80;1.00;;;;;;4928311;29;20452;-77
2022/10/19 12:03:42;;;;;;;1.80;1.70;;;15.80;1.00;;;;;;4936384;29;20463;-78
2022/10/19 12:06:17;;;;;;;0.60;0.10;;;15.90;1.00;;;;;;4938183;29;20514;-79
2022/10/19 12:09:03;;;;;;;0.60;0.20;;;15.90;1.00;;;;;;4935472;29;20522;-77
2022/10/19 12:11:46;;;;;;;0.60;0.10;;;16.00;1.00;;;;;;4929207;29;20469;-78
2022/10/19 12:14:21;;;;;;;0.60;0.10;;;16.10;1.00;;;;;;4935414;29;20452;-78
2022/10/19 12:16:53;;;;;;;0.60;0.10;;;16.10;1.00;;;;;;4931668;29;20493;-78
2022/10/19 12:19:24;;;;;;;0.60;0.10;;;16.20;1.00;;;;;;4940081;29;20491;-79
2022/10/19 12:21:54;;;;;;;0.60;0.10;;;16.20;1.00;;;;;;4938826;29;20460;-79
2022/10/19 12:24:25;;;;;;;0.60;0.20;;;16.30;1.00;;;;;;4937619;29;20456;-79
2022/10/19 12:26:54;;;;;;;0.60;0.10;;;16.30;1.00;;;;;;4939996;29;20986;-79
2022/10/19 12:29:27;;;;;;;0.60;0.10;;;16.20;1.00;;;;;;4940852;29;21018;-78
2022/10/19 12:31:57;;;;;;;0.60;0.30;;;16.20;1.00;;;;;;4933529;29;20511;-77
2022/10/19 12:34:36;;;;;;;0.60;0.10;;;16.20;1.00;;;;;;4946290;29;20444;-77
2022/10/19 12:37:10;;;;;;;0.60;0.10;;;16.20;1.00;;;;;;4939857;29;20479;-77
2022/10/19 12:39:45;;;;;;;0.60;0.10;;;16.20;1.00;;;;;;4934503;29;20456;-79
2022/10/19 12:42:24;;;;;;;0.60;0.10;;;16.20;1.00;;;;;;4935581;29;20827;-78
2022/10/19 12:45:20;;;;;;;0.60;0.10;;;16.20;1.00;;;;;;4922316;29;20492;-79
2022/10/19 12:48:18;;;;;;;0.60;0.10;;;16.20;1.00;;;;;;4920452;29;20503;-78
2022/10/19 12:51:11;;;;;;;0.70;0.20;;;16.20;1.00;;;;;;4923547;29;20457;-77
2022/10/19 12:53:43;;;;;;;2.33;2.13;;;16.20;1.00;;;;;;4935439;29;20441;-78
2022/10/19 12:56:16;;;;;;;0.60;0.10;;;16.20;1.00;;;;;;4942852;29;20472;-78
2022/10/19 12:58:56;;;;;;;0.70;0.33;;;16.20;1.00;;;;;;4941382;29;20539;-79
2022/10/19 13:01:28;;;;;;;0.60;0.10;;;16.30;1.00;;;;;;4934076;29;21014;-78
2022/10/19 13:04:12;;;;;;;0.60;0.20;;;16.30;1.00;;;;;;4932262;29;20456;-79
2022/10/19 13:06:41;;;;;;;0.60;0.10;;;;;;;;;;4935200;29;20471;-79
2022/10/19 13:09:23;;;;;;;0.60;0.10;;;16.40;1.00;;;;;;4939020;29;20475;-79
2022/10/19 13:12:40;;;;;;;0.60;0.10;;;16.50;1.00;;;;;;4936570;29;20444;-78
2022/10/19 13:15:55;;;;;;;0.80;0.50;;;16.40;1.00;;;;;;4929368;29;20444;-78
2022/10/19 13:19:07;;;;;;;0.60;0.10;;;16.40;1.00;;;;;;4940912;29;20632;-77
2022/10/19 13:22:13;;;;;;;0.60;0.10;;;16.40;1.00;;;;;;4938130;29;20460;-78
2022/10/19 13:24:41;;;;;;;0.60;0.10;;;16.40;1.00;;;;;;4943811;29;20585;-78
2022/10/19 13:27:37;;;;;;;0.60;0.10;;;16.40;1.00;;;;;;4952103;29;20531;-78
2022/10/19 13:30:45;;;;;;;0.60;0.10;;;16.40;1.00;;;;;;4942927;29;20439;-78
2022/10/19 13:33:43;;;;;;;0.60;0.10;;;16.40;1.00;;;;;;4935225;29;20455;-77
2022/10/19 13:36:12;;;;;;;0.60;0.10;;;16.40;1.00;;;;;;4940094;29;20484;-79
2022/10/19 13:38:42;;;;;;;0.60;0.30;;;16.40;1.00;;;;;;4935900;29;20576;-77
2022/10/19 13:41:14;;;;;;;1.17;0.60;;;16.40;1.00;;;;;;4927351;29;20440;-78
2022/10/19 13:44:06;;;;;;;0.60;0.20;;;16.40;1.00;;;;;;4940570;29;20480;-77
2022/10/19 13:46:53;;;;;;;0.60;0.10;;;16.40;1.00;;;;;;4938619;29;20499;-79
2022/10/19 13:49:43;;;;;;;0.60;0.10;;;16.40;1.00;;;;;;4941438;29;20959;-79
2022/10/19 13:52:41;;;;;;;0.60;0.10;;;16.40;1.00;;;;;;4942428;29;20455;-78
2022/10/19 13:55:28;;;;;;;0.60;0.10;;;16.40;1.00;;;;;;4907865;29;20461;-79
2022/10/19 13:58:25;;;;;;;0.60;0.10;;;16.50;1.00;;;;;;4927184;29;20476;-79
2022/10/19 14:01:06;;;;;;;0.60;0.20;;;16.50;1.00;;;;;;4922140;29;20453;-79
2022/10/19 14:03:57;;;;;;;0.60;0.10;;;16.50;1.00;;;;;;4927674;29;20491;-79
2022/10/19 14:06:34;;;;;;;0.60;0.10;;;16.60;1.00;;;;;;4948109;29;21006;-79
2022/10/19 14:09:46;;;;;;;0.60;0.10;;;16.60;1.00;;;;;;4946526;29;20475;-78
2022/10/19 14:12:22;;;;;;;0.60;0.10;;;16.60;1.00;;;;;;4940594;29;20447;-78
2022/10/19 14:14:52;;;;;;;0.60;0.10;;;16.60;1.00;;;;;;4938171;29;20462;-76
2022/10/19 14:17:23;;;;;;;0.60;0.20;;;16.60;1.00;;;;;;4938782;29;20486;-78
2022/10/19 14:19:53;;;;;;;0.60;0.20;;;16.60;1.00;;;;;;4922797;29;20504;-77
2022/10/19 14:22:26;;;;;;;0.60;0.10;;;16.60;1.00;;;;;;4937692;29;20455;-77
2022/10/19 14:25:01;;;;;;;0.60;0.10;;;16.60;1.00;;;;;;4942581;29;21047;-77
2022/10/19 14:27:30;;;;;;;0.60;0.10;;;16.50;1.00;;;;;;4944593;29;20483;-78
2022/10/19 14:29:58;;;;;;;0.60;0.37;;;16.50;1.00;;;;;;4944599;29;20479;-78
2022/10/19 14:32:29;;;;;;;0.60;0.20;;;16.50;1.00;;;;;;4944131;29;20525;-77
2022/10/19 14:35:02;;;;;;;0.60;0.10;;;16.50;1.00;;;;;;4941125;29;20440;-77
2022/10/19 14:37:37;;;;;;;0.60;0.10;;;16.50;1.00;;;;;;4939053;29;20459;-78
2022/10/19 14:40:08;;;;;;;0.60;0.10;;;16.50;1.00;;;;;;4939024;29;20467;-78
2022/10/19 14:42:39;;;;;;;0.60;0.10;;;16.50;1.00;;;;;;4937851;29;20448;-78
2022/10/19 14:45:15;;;;;;;0.60;0.10;;;16.50;1.00;;;;;;4940613;29;20522;-79
2022/10/19 14:47:56;;;;;;;0.60;0.10;;;16.50;1.00;;;;;;4939933;29;20517;-78
2022/10/19 14:50:29;;;;;;;0.60;0.10;;;16.50;1.00;;;;;;4943340;29;20461;-76
2022/10/19 14:53:04;;;;;;;0.70;0.40;;;16.50;1.00;;;;;;4942657;29;20452;-76
2022/10/19 14:55:36;;;;;;;0.60;0.10;;;16.50;1.00;;;;;;4941433;29;20511;-77
2022/10/19 14:58:17;;;;;;;0.60;0.10;;;16.50;1.00;;;;;;4941864;29;20480;-75
2022/10/19 15:00:46;;;;;;;0.60;0.10;;;16.50;1.00;;;;;;4940549;29;20503;-77
2022/10/19 15:03:21;;;;;;;0.60;0.10;;;16.50;1.00;;;;;;4941850;29;20448;-77
2022/10/19 15:05:54;;;;;;;0.60;0.10;;;16.50;1.00;;;;;;4935431;29;20472;-76
2022/10/19 15:08:30;;;;;;;0.60;0.10;;;16.50;1.00;;;;;;4937674;29;20879;-76
2022/10/19 15:10:59;;;;;;;0.60;0.10;;;16.50;1.00;;;;;;4939475;29;20463;-77
2022/10/19 15:13:31;;;;;;;0.60;0.10;;;16.40;1.00;;;;;;4918998;29;20972;-77
2022/10/19 15:15:59;;;;;;;0.60;0.10;;;16.40;1.00;;;;;;4915924;29;20905;-79
2022/10/19 15:18:33;;;;;;;0.60;0.10;;;16.30;1.00;;;;;;4915778;29;21058;-77
2022/10/19 15:21:19;;;;;;;0.60;0.10;;;16.30;1.00;;;;;;4916481;29;20468;-77
2022/10/19 15:23:50;;;;;;;0.60;0.10;;;16.20;1.00;;;;;;4916341;29;20464;-77
2022/10/19 15:26:21;;;;;;;0.60;0.20;;;16.10;1.00;;;;;;4915867;29;21042;-77
2022/10/19 15:28:49;;;;;;;0.60;0.10;;;16.10;1.00;;;;;;4915211;29;20480;-77
2022/10/19 15:31:19;;;;;;;0.60;0.10;;;16.10;1.00;;;;;;4916226;29;20460;-79
2022/10/19 15:33:52;;;;;;;0.60;0.10;;;16.00;1.00;;;;;;4922995;29;20559;-75
2022/10/19 15:36:22;;;;;;;0.60;0.10;;;15.90;1.00;;;;;;4935930;29;20479;-78
2022/10/19 15:39:01;;;;;;;0.60;0.13;;;16.00;1.00;;;;;;4935678;29;20994;-77
2022/10/19 15:41:50;;;;;;;0.60;0.10;;;;;;;;;;4939201;29;20456;-78
2022/10/19 15:44:32;;;;;;;0.60;0.10;;;16.00;1.00;;;;;;4939029;29;20471;-76
2022/10/19 15:47:22;;;;;;;0.60;0.10;;;16.00;1.00;;;;;;4939906;29;20460;-77
2022/10/19 15:50:01;;;;;;;0.60;0.10;;;16.10;1.00;;;;;;4940247;29;20451;-78
2022/10/19 15:52:31;;;;;;;0.60;0.10;;;16.00;1.00;;;;;;4986035;23;20502;-75
2022/10/19 15:55:01;;;;;;;0.60;0.10;;;16.00;1.00;;;;;;4960584;29;20455;-75
2022/10/19 15:57:32;;;;;;;0.60;0.10;;;16.00;1.00;;;;;;4941327;29;20490;-75
2022/10/19 16:00:06;;;;;;;0.60;0.10;;;16.00;1.00;;;;;;4940393;29;20515;-74
2022/10/19 16:02:34;;;;;;;0.60;0.10;;;15.90;1.00;;;;;;4947920;29;20866;-76
2022/10/19 16:05:02;;;;;;;0.60;0.10;;;15.90;1.00;;;;;;4949507;29;20450;-77
2022/10/19 16:07:34;;;;;;;0.60;0.10;;;15.90;1.00;;;;;;4948039;29;20534;-75
2022/10/19 16:10:04;;;;;;;0.60;0.10;;;;;;;;;;4959226;29;20518;-75
2022/10/19 16:12:32;;;;;;;0.60;0.10;;;15.90;1.00;;;;;;4958772;28;20463;-75
2022/10/19 16:14:59;;;;;;;0.60;0.10;;;15.80;1.00;;;;;;4955253;29;20513;-75
2022/10/19 16:17:27;;;;;;;0.60;0.10;;;15.80;1.00;;;;;;4951336;29;20819;-76
2022/10/19 16:19:55;;;;;;;0.60;0.10;;;15.90;1.00;;;;;;4946309;29;20593;-75
2022/10/19 16:22:23;;;;;;;0.60;0.10;;;15.60;1.00;;;;;;4954232;28;20522;-74
2022/10/19 16:24:51;;;;;;;0.60;0.10;;;15.60;1.00;;;;;;4947090;29;20448;-75
2022/10/19 16:27:20;;;;;;;0.60;0.10;;;15.50;1.00;;;;;;4948678;29;20455;-76
2022/10/19 16:29:48;;;;;;;0.60;0.10;;;15.40;1.00;;;;;;4959477;29;20483;-76
2022/10/19 16:32:16;;;;;;;0.60;0.10;;;15.40;1.00;;;;;;4959648;28;20467;-75
2022/10/19 16:34:44;;;;;;;0.60;0.10;;;15.30;1.00;;;;;;4959482;29;20456;-77
2022/10/19 16:37:11;;;;;;;0.60;0.10;;;15.30;1.00;;;;;;4960257;29;20946;-77
2022/10/19 16:39:39;;;;;;;0.60;0.10;;;15.30;1.00;;;;;;4962080;29;20483;-76
2022/10/19 16:42:07;;;;;;;0.70;0.60;;;15.30;1.00;;;;;;4959590;28;20910;-77
2022/10/19 16:44:37;;;;;;;0.60;0.10;;;15.30;1.00;;;;;;4958787;29;20459;-77
2022/10/19 16:47:04;;;;;;;0.70;0.40;;;15.30;1.00;;;;;;4958559;29;20555;-75
2022/10/19 16:49:32;;;;;;;0.60;0.10;;;15.30;1.00;;;;;;4958662;29;20454;-75
2022/10/19 16:52:00;;;;;;;0.80;0.57;;;15.20;1.00;;;;;;4956200;28;20510;-74
2022/10/19 16:54:29;;;;;;;0.60;0.20;;;15.20;1.00;;;;;;4958304;29;20818;-76
2022/10/19 16:56:57;;;;;;;0.60;0.10;;;15.20;1.00;;;;;;4957748;29;20486;-76
2022/10/19 16:59:25;;;;;;;0.60;0.20;;;15.20;1.00;;;;;;4958553;29;20537;-77
2022/10/19 17:01:54;;;;;;;0.60;0.20;;;15.10;1.00;;;;;;4958629;29;20471;-75
2022/10/19 17:04:22;;;;;;;0.60;0.10;;;15.10;1.00;;;;;;4958604;29;20442;-78
2022/10/19 17:06:50;;;;;;;2.60;0.83;;;15.00;1.00;;;;;;4950027;29;20480;-76
2022/10/19 17:09:17;;;;;;;0.60;0.10;;;15.00;1.00;;;;;;4946472;29;20451;-75
2022/10/19 17:12:07;;;;;;;0.60;0.20;;;14.90;1.00;;;;;;4957354;28;20467;-76
2022/10/19 17:14:35;;;;;;;0.60;0.20;;;14.80;1.00;;;;;;4955826;29;21028;-75
2022/10/19 17:17:05;;;;;;;0.60;0.10;;;14.80;1.00;;;;;;4956615;29;20506;-76
2022/10/19 17:19:33;;;;;;;0.63;0.37;;;14.80;1.00;;;;;;4956519;29;20487;-76
2022/10/19 17:22:02;;;;;;;0.60;0.10;;;14.80;1.00;;;;;;4956213;28;20474;-76
2022/10/19 17:24:31;;;;;;;0.60;0.10;;;14.70;1.00;;;;;;4956579;29;20566;-75
2022/10/19 17:27:01;;;;;;;0.60;0.10;;;;;;;;;;4957247;29;20451;-76
2022/10/19 17:29:29;;;;;;;0.60;0.10;;;14.70;1.00;;;;;;4958223;29;20447;-75
2022/10/19 17:31:57;;;;;;;0.70;0.57;;;14.70;1.00;;;;;;4956785;28;20518;-75